createdAt,value
2019-05-17T00:00:32.810Z,0.00
2019-05-17T00:01:32.778Z,0.00
2019-05-17T00:02:32.763Z,0.00
2019-05-17T00:03:32.752Z,0.00
2019-05-17T00:04:32.741Z,0.00
2019-05-17T00:05:32.765Z,0.00
2019-05-17T00:06:32.720Z,0.00
2019-05-17T00:07:32.709Z,0.00
2019-05-17T00:08:34.796Z,0.00
2019-05-17T00:09:33.686Z,0.00
2019-05-17T00:10:32.676Z,0.00
2019-05-17T00:11:32.701Z,0.00
2019-05-17T00:12:32.656Z,0.00
2019-05-17T00:13:32.642Z,0.00
2019-05-17T00:14:32.633Z,0.00
2019-05-17T00:15:32.621Z,0.00
2019-05-17T00:16:32.612Z,0.00
2019-05-17T00:17:32.635Z,0.00
2019-05-17T00:18:32.589Z,0.00
2019-05-17T00:19:32.577Z,0.00
2019-05-17T00:20:32.568Z,0.00
2019-05-17T00:21:32.556Z,0.00
2019-05-17T00:22:32.544Z,0.00
2019-05-17T00:23:32.558Z,0.00
2019-05-17T00:24:32.522Z,0.00
2019-05-17T00:25:32.512Z,0.00
2019-05-17T00:26:32.501Z,0.00
2019-05-17T00:27:32.497Z,0.00
2019-05-17T00:28:32.515Z,0.00
2019-05-17T00:29:32.465Z,0.00
2019-05-17T00:30:32.454Z,0.00
2019-05-17T00:31:32.444Z,0.00
2019-05-17T00:32:32.433Z,0.00
2019-05-17T00:33:32.422Z,0.00
2019-05-17T00:34:32.447Z,0.00
2019-05-17T00:35:32.401Z,0.00
2019-05-17T00:36:32.388Z,0.00
2019-05-17T00:37:32.378Z,0.00
2019-05-17T00:38:45.577Z,0.00
2019-05-17T00:39:33.393Z,0.00
2019-05-17T00:40:32.345Z,0.00
2019-05-17T00:41:32.334Z,0.00
2019-05-17T00:42:32.328Z,0.00
2019-05-17T00:43:32.310Z,0.00
2019-05-17T00:44:32.302Z,0.00
2019-05-17T00:45:32.329Z,0.00
2019-05-17T00:46:32.278Z,0.00
2019-05-17T00:47:32.265Z,0.00
2019-05-17T00:48:32.254Z,0.00
2019-05-17T00:49:32.244Z,0.00
2019-05-17T00:50:32.233Z,0.00
2019-05-17T00:51:32.262Z,0.00
2019-05-17T00:52:32.209Z,0.00
2019-05-17T00:53:32.198Z,0.00
2019-05-17T00:54:32.189Z,0.00
2019-05-17T00:55:32.177Z,0.00
2019-05-17T00:56:32.167Z,0.00
2019-05-17T00:57:32.191Z,0.00
2019-05-17T00:58:32.145Z,0.00
2019-05-17T00:59:32.133Z,0.00
2019-05-17T01:00:32.124Z,0.00
2019-05-17T01:01:32.111Z,0.00
2019-05-17T01:02:32.101Z,0.00
2019-05-17T01:03:32.125Z,0.00
2019-05-17T01:04:32.076Z,0.00
2019-05-17T01:05:32.066Z,0.00
2019-05-17T01:06:32.055Z,0.00
2019-05-17T01:07:32.048Z,0.00
2019-05-17T01:08:32.041Z,0.00
2019-05-17T01:09:32.058Z,0.00
2019-05-17T01:10:32.010Z,0.00
2019-05-17T01:11:32.003Z,0.00
2019-05-17T01:12:31.990Z,0.00
2019-05-17T01:13:31.978Z,0.00
2019-05-17T01:14:31.965Z,0.00
2019-05-17T01:15:31.992Z,0.00
2019-05-17T01:16:31.945Z,0.00
2019-05-17T01:17:31.947Z,0.00
2019-05-17T01:18:31.928Z,0.00
2019-05-17T01:19:31.911Z,0.00
2019-05-17T01:20:31.900Z,0.00
2019-05-17T01:21:31.914Z,0.00
2019-05-17T01:22:31.878Z,0.00
2019-05-17T01:23:31.868Z,0.00
2019-05-17T01:24:31.856Z,0.00
2019-05-17T01:25:31.843Z,0.00
2019-05-17T01:26:31.872Z,0.00
2019-05-17T01:27:31.824Z,0.00
2019-05-17T01:28:31.813Z,0.00
2019-05-17T01:29:31.799Z,0.00
2019-05-17T01:30:31.789Z,0.00
2019-05-17T01:31:31.777Z,0.00
2019-05-17T01:32:31.793Z,0.00
2019-05-17T01:33:31.755Z,0.00
2019-05-17T01:34:31.744Z,0.00
2019-05-17T01:35:31.742Z,0.00
2019-05-17T01:36:31.721Z,0.00
2019-05-17T01:37:31.747Z,0.00
2019-05-17T01:38:31.699Z,0.00
2019-05-17T01:39:33.531Z,0.00
2019-05-17T01:40:31.678Z,0.00
2019-05-17T01:41:31.665Z,0.00
2019-05-17T01:42:31.656Z,0.00
2019-05-17T01:43:31.673Z,0.00
2019-05-17T01:44:31.633Z,0.00
2019-05-17T01:45:31.620Z,0.00
2019-05-17T01:46:31.609Z,0.00
2019-05-17T01:47:31.599Z,0.00
2019-05-17T01:48:31.624Z,0.00
2019-05-17T01:49:31.575Z,0.00
2019-05-17T01:50:31.564Z,0.00
2019-05-17T01:51:31.556Z,0.00
2019-05-17T01:52:31.543Z,0.00
2019-05-17T01:53:31.530Z,0.00
2019-05-17T01:54:31.559Z,0.00
2019-05-17T01:55:31.510Z,0.00
2019-05-17T01:56:31.498Z,0.00
2019-05-17T01:57:31.487Z,0.00
2019-05-17T01:58:31.491Z,0.00
2019-05-17T01:59:31.466Z,0.00
2019-05-17T02:00:31.503Z,0.00
2019-05-17T02:01:31.444Z,0.00
2019-05-17T02:02:31.432Z,0.00
2019-05-17T02:03:31.424Z,0.00
2019-05-17T02:04:31.409Z,0.00
2019-05-17T02:05:31.398Z,0.00
2019-05-17T02:06:31.429Z,0.00
2019-05-17T02:07:31.376Z,0.00
2019-05-17T02:08:31.364Z,0.00
2019-05-17T02:09:37.429Z,0.00
2019-05-17T02:10:32.342Z,0.00
2019-05-17T02:11:31.332Z,0.00
2019-05-17T02:12:31.345Z,0.00
2019-05-17T02:13:31.308Z,0.00
2019-05-17T02:14:31.299Z,0.00
2019-05-17T02:15:31.286Z,0.00
2019-05-17T02:16:31.277Z,0.00
2019-05-17T02:17:31.305Z,0.00
2019-05-17T02:18:31.253Z,0.00
2019-05-17T02:19:31.243Z,0.00
2019-05-17T02:20:31.231Z,0.00
2019-05-17T02:21:31.220Z,0.00
2019-05-17T02:22:31.214Z,0.00
2019-05-17T02:23:31.234Z,0.00
2019-05-17T02:24:31.186Z,0.00
2019-05-17T02:25:31.175Z,0.00
2019-05-17T02:26:31.174Z,0.00
2019-05-17T02:27:35.833Z,0.00
2019-05-17T02:28:32.256Z,0.00
2019-05-17T02:29:32.150Z,0.00
2019-05-17T02:30:33.762Z,0.00
2019-05-17T02:31:32.828Z,0.00
2019-05-17T02:32:33.670Z,0.00
2019-05-17T02:33:33.301Z,0.00
2019-05-17T02:34:33.759Z,0.00
2019-05-17T02:35:33.696Z,0.00
2019-05-17T02:36:33.289Z,0.00
2019-05-17T02:37:33.377Z,0.00
2019-05-17T02:38:33.367Z,0.00
2019-05-17T02:39:32.673Z,0.00
2019-05-17T02:40:34.175Z,0.00
2019-05-17T02:41:33.279Z,0.00
2019-05-17T02:42:33.376Z,0.00
2019-05-17T02:43:33.409Z,0.00
2019-05-17T02:44:33.484Z,0.00
2019-05-17T02:45:32.820Z,0.00
2019-05-17T02:46:33.821Z,0.00
2019-05-17T02:47:33.716Z,0.00
2019-05-17T02:48:33.895Z,0.00
2019-05-17T02:49:33.161Z,0.00
2019-05-17T02:50:33.186Z,0.00
2019-05-17T02:51:32.387Z,0.00
2019-05-17T02:52:32.815Z,0.00
2019-05-17T02:53:33.461Z,0.00
2019-05-17T02:54:32.785Z,0.00
2019-05-17T02:55:32.474Z,0.00
2019-05-17T02:56:32.819Z,0.00
2019-05-17T02:57:30.819Z,0.00
2019-05-17T02:58:33.061Z,0.00
2019-05-17T02:59:33.131Z,0.00
2019-05-17T03:00:33.886Z,0.00
2019-05-17T03:01:33.264Z,0.00
2019-05-17T03:02:33.851Z,0.00
2019-05-17T03:03:32.337Z,0.00
2019-05-17T03:04:32.643Z,0.00
2019-05-17T03:05:33.792Z,0.00
2019-05-17T03:06:32.957Z,0.00
2019-05-17T03:07:32.627Z,0.00
2019-05-17T03:08:33.659Z,0.00
2019-05-17T03:09:33.312Z,0.00
2019-05-17T03:10:33.542Z,0.00
2019-05-17T03:11:33.305Z,0.00
2019-05-17T03:12:32.932Z,0.00
2019-05-17T03:13:32.840Z,0.00
2019-05-17T03:14:32.786Z,0.00
2019-05-17T03:15:32.374Z,0.00
2019-05-17T03:16:33.603Z,0.00
2019-05-17T03:17:33.546Z,0.00
2019-05-17T03:18:33.418Z,0.00
2019-05-17T03:19:32.714Z,0.00
2019-05-17T03:20:32.850Z,0.00
2019-05-17T03:21:33.500Z,0.00
2019-05-17T03:22:33.196Z,0.00
2019-05-17T03:23:32.847Z,0.00
2019-05-17T03:24:33.276Z,0.00
2019-05-17T03:25:33.361Z,0.00
2019-05-17T03:26:32.812Z,0.00
2019-05-17T03:27:33.490Z,0.00
2019-05-17T03:28:33.426Z,0.00
2019-05-17T03:29:33.353Z,0.00
2019-05-17T03:30:36.469Z,0.00
2019-05-17T03:31:40.714Z,0.00
2019-05-17T03:32:35.960Z,0.00
2019-05-17T03:33:36.003Z,0.00
2019-05-17T03:34:36.432Z,0.00
2019-05-17T03:35:36.606Z,0.00
2019-05-17T03:36:36.164Z,0.00
2019-05-17T03:37:36.807Z,0.00
2019-05-17T03:38:32.519Z,0.00
2019-05-17T03:39:33.139Z,0.00
2019-05-17T03:41:01.309Z,0.00
2019-05-17T03:41:34.081Z,0.00
2019-05-17T03:42:32.835Z,0.00
2019-05-17T03:43:30.350Z,0.00
2019-05-17T03:44:33.008Z,0.00
2019-05-17T03:45:33.609Z,0.00
2019-05-17T03:46:33.198Z,0.00
2019-05-17T03:47:33.191Z,0.00
2019-05-17T03:48:33.196Z,0.00
2019-05-17T03:49:32.951Z,0.00
2019-05-17T03:50:33.207Z,5.62
2019-05-17T03:51:33.007Z,5.62
2019-05-17T03:52:33.099Z,5.62
2019-05-17T03:53:33.151Z,5.62
2019-05-17T03:54:32.467Z,5.62
2019-05-17T03:55:33.324Z,5.62
2019-05-17T03:56:32.735Z,5.62
2019-05-17T03:57:32.338Z,5.62
2019-05-17T03:58:33.242Z,5.62
2019-05-17T03:59:33.194Z,5.62
2019-05-17T04:00:30.123Z,5.62
2019-05-17T04:01:32.788Z,5.62
2019-05-17T04:02:32.736Z,5.62
2019-05-17T04:03:32.343Z,5.62
2019-05-17T04:04:33.110Z,5.62
2019-05-17T04:05:33.099Z,5.62
2019-05-17T04:06:32.660Z,5.62
2019-05-17T04:07:32.892Z,5.62
2019-05-17T04:08:33.154Z,5.62
2019-05-17T04:09:32.683Z,5.62
2019-05-17T04:10:32.995Z,5.62
2019-05-17T04:11:32.865Z,11.25
2019-05-17T04:12:32.698Z,11.25
2019-05-17T04:13:29.984Z,11.25
2019-05-17T04:14:33.310Z,11.25
2019-05-17T04:15:32.898Z,11.25
2019-05-17T04:16:29.946Z,11.25
2019-05-17T04:17:32.557Z,11.25
2019-05-17T04:18:29.962Z,11.25
2019-05-17T04:19:33.450Z,11.25
2019-05-17T04:20:32.877Z,11.25
2019-05-17T04:21:29.907Z,11.25
2019-05-17T04:22:32.848Z,11.25
2019-05-17T04:23:29.883Z,11.25
2019-05-17T04:24:32.399Z,11.25
2019-05-17T04:25:33.067Z,11.25
2019-05-17T04:26:32.465Z,11.25
2019-05-17T04:27:32.449Z,11.25
2019-05-17T04:28:33.269Z,16.88
2019-05-17T04:29:32.881Z,16.88
2019-05-17T04:30:32.414Z,16.88
2019-05-17T04:31:31.772Z,16.88
2019-05-17T04:32:29.767Z,16.88
2019-05-17T04:33:29.771Z,16.88
2019-05-17T04:34:33.222Z,16.88
2019-05-17T04:35:32.441Z,16.88
2019-05-17T04:36:32.184Z,16.88
2019-05-17T04:37:29.712Z,16.88
2019-05-17T04:38:32.869Z,16.88
2019-05-17T04:39:32.512Z,16.88
2019-05-17T04:40:29.678Z,16.88
2019-05-17T04:41:41.499Z,16.88
2019-05-17T04:42:33.074Z,16.88
2019-05-17T04:43:32.964Z,16.88
2019-05-17T04:44:32.065Z,16.88
2019-05-17T04:45:29.622Z,16.88
2019-05-17T04:46:32.426Z,16.88
2019-05-17T04:47:32.936Z,16.88
2019-05-17T04:48:32.325Z,16.88
2019-05-17T04:49:32.867Z,16.88
2019-05-17T04:50:29.575Z,16.88
2019-05-17T04:51:32.013Z,16.88
2019-05-17T04:52:29.552Z,16.88
2019-05-17T04:53:32.516Z,16.88
2019-05-17T04:54:29.565Z,16.88
2019-05-17T04:55:29.518Z,22.50
2019-05-17T04:56:29.507Z,22.50
2019-05-17T04:57:32.354Z,22.50
2019-05-17T04:58:29.501Z,22.50
2019-05-17T04:59:33.353Z,28.12
2019-05-17T05:00:29.497Z,22.50
2019-05-17T05:01:32.760Z,22.50
2019-05-17T05:02:32.778Z,28.12
2019-05-17T05:03:32.422Z,33.75
2019-05-17T05:04:29.416Z,33.75
2019-05-17T05:05:29.403Z,33.75
2019-05-17T05:06:32.583Z,33.75
2019-05-17T05:07:29.382Z,33.75
2019-05-17T05:08:29.372Z,33.75
2019-05-17T05:09:32.123Z,39.38
2019-05-17T05:10:29.350Z,33.75
2019-05-17T05:11:32.601Z,33.75
2019-05-17T05:12:29.364Z,33.75
2019-05-17T05:13:29.318Z,33.75
2019-05-17T05:14:29.330Z,33.75
2019-05-17T05:15:32.133Z,39.38
2019-05-17T05:16:31.859Z,39.38
2019-05-17T05:17:29.274Z,33.75
2019-05-17T05:18:29.299Z,33.75
2019-05-17T05:19:29.252Z,33.75
2019-05-17T05:20:29.247Z,33.75
2019-05-17T05:21:32.048Z,33.75
2019-05-17T05:22:29.220Z,33.75
2019-05-17T05:23:29.206Z,33.75
2019-05-17T05:24:31.435Z,39.38
2019-05-17T05:25:29.189Z,39.38
2019-05-17T05:26:29.174Z,33.75
2019-05-17T05:27:31.515Z,33.75
2019-05-17T05:28:31.558Z,33.75
2019-05-17T05:29:29.142Z,33.75
2019-05-17T05:30:29.171Z,33.75
2019-05-17T05:31:29.130Z,33.75
2019-05-17T05:32:31.491Z,33.75
2019-05-17T05:33:29.101Z,33.75
2019-05-17T05:34:29.088Z,33.75
2019-05-17T05:35:29.077Z,33.75
2019-05-17T05:36:29.097Z,33.75
2019-05-17T05:37:29.052Z,33.75
2019-05-17T05:38:29.039Z,33.75
2019-05-17T05:39:29.091Z,33.75
2019-05-17T05:40:29.019Z,33.75
2019-05-17T05:41:29.006Z,33.75
2019-05-17T05:42:29.021Z,33.75
2019-05-17T05:43:28.983Z,33.75
2019-05-17T05:44:28.975Z,28.12
2019-05-17T05:45:28.963Z,28.12
2019-05-17T05:46:28.951Z,28.12
2019-05-17T05:47:28.976Z,28.12
2019-05-17T05:48:28.930Z,33.75
2019-05-17T05:49:28.919Z,28.12
2019-05-17T05:50:28.906Z,28.12
2019-05-17T05:51:28.896Z,28.12
2019-05-17T05:52:28.886Z,33.75
2019-05-17T05:53:28.901Z,33.75
2019-05-17T05:54:28.863Z,33.75
2019-05-17T05:55:28.853Z,33.75
2019-05-17T05:56:28.841Z,33.75
2019-05-17T05:57:28.835Z,33.75
2019-05-17T05:58:28.860Z,33.75
2019-05-17T05:59:28.810Z,33.75
2019-05-17T06:00:28.801Z,33.75
2019-05-17T06:01:28.787Z,39.38
2019-05-17T06:02:28.777Z,33.75
2019-05-17T06:03:28.765Z,33.75
2019-05-17T06:04:28.783Z,33.75
2019-05-17T06:05:28.745Z,33.75
2019-05-17T06:06:28.731Z,33.75
2019-05-17T06:07:28.728Z,33.75
2019-05-17T06:08:28.713Z,33.75
2019-05-17T06:09:28.741Z,33.75
2019-05-17T06:10:28.689Z,33.75
2019-05-17T06:11:28.679Z,33.75
2019-05-17T06:12:28.667Z,33.75
2019-05-17T06:13:28.658Z,33.75
2019-05-17T06:14:28.646Z,33.75
2019-05-17T06:15:28.659Z,33.75
2019-05-17T06:16:28.624Z,33.75
2019-05-17T06:17:28.613Z,33.75
2019-05-17T06:18:28.600Z,33.75
2019-05-17T06:19:28.589Z,33.75
2019-05-17T06:20:28.614Z,33.75
2019-05-17T06:21:28.567Z,33.75
2019-05-17T06:22:28.559Z,33.75
2019-05-17T06:23:28.546Z,33.75
2019-05-17T06:24:28.547Z,33.75
2019-05-17T06:25:28.524Z,33.75
2019-05-17T06:26:28.538Z,33.75
2019-05-17T06:27:28.501Z,33.75
2019-05-17T06:28:28.498Z,33.75
2019-05-17T06:29:28.489Z,33.75
2019-05-17T06:30:28.469Z,33.75
2019-05-17T06:31:28.493Z,33.75
2019-05-17T06:32:28.454Z,33.75
2019-05-17T06:33:33.794Z,33.75
2019-05-17T06:34:29.423Z,39.38
2019-05-17T06:35:28.413Z,39.38
2019-05-17T06:36:28.403Z,39.38
2019-05-17T06:37:28.417Z,39.38
2019-05-17T06:38:28.380Z,39.38
2019-05-17T06:39:28.370Z,39.38
2019-05-17T06:40:28.358Z,39.38
2019-05-17T06:41:28.347Z,39.38
2019-05-17T06:42:38.397Z,39.38
2019-05-17T06:43:29.324Z,39.38
2019-05-17T06:44:28.316Z,39.38
2019-05-17T06:45:28.307Z,39.38
2019-05-17T06:46:28.294Z,39.38
2019-05-17T06:47:28.283Z,39.38
2019-05-17T06:48:28.305Z,39.38
2019-05-17T06:49:28.260Z,39.38
2019-05-17T06:50:28.249Z,39.38
2019-05-17T06:51:28.239Z,39.38
2019-05-17T06:52:28.227Z,39.38
2019-05-17T06:53:28.255Z,39.38
2019-05-17T06:54:28.208Z,39.38
2019-05-17T06:55:28.205Z,39.38
2019-05-17T06:56:28.184Z,39.38
2019-05-17T06:57:28.174Z,39.38
2019-05-17T06:58:28.161Z,39.38
2019-05-17T06:59:28.178Z,39.38
2019-05-17T07:00:29.882Z,39.38
2019-05-17T07:01:29.231Z,39.38
2019-05-17T07:02:30.711Z,45.00
2019-05-17T07:03:29.473Z,45.00
2019-05-17T07:04:29.983Z,45.00
2019-05-17T07:05:29.374Z,45.00
2019-05-17T07:06:29.646Z,45.00
2019-05-17T07:07:30.570Z,45.00
2019-05-17T07:08:29.575Z,45.00
2019-05-17T07:09:30.183Z,45.00
2019-05-17T07:10:30.067Z,45.00
2019-05-17T07:11:30.247Z,45.00
2019-05-17T07:12:30.460Z,45.00
2019-05-17T07:13:29.889Z,45.00
2019-05-17T07:14:29.460Z,45.00
2019-05-17T07:15:43.036Z,45.00
2019-05-17T07:16:30.079Z,45.00
2019-05-17T07:17:30.259Z,45.00
2019-05-17T07:18:30.073Z,45.00
2019-05-17T07:19:30.261Z,45.00
2019-05-17T07:20:29.811Z,45.00
2019-05-17T07:21:29.709Z,45.00
2019-05-17T07:22:29.614Z,45.00
2019-05-17T07:23:30.125Z,45.00
2019-05-17T07:24:29.916Z,45.00
2019-05-17T07:25:30.217Z,45.00
2019-05-17T07:26:30.085Z,45.00
2019-05-17T07:27:41.085Z,45.00
2019-05-17T07:28:30.166Z,45.00
2019-05-17T07:29:29.832Z,45.00
2019-05-17T07:30:27.808Z,45.00
2019-05-17T07:31:29.749Z,50.62
2019-05-17T07:32:29.745Z,50.62
2019-05-17T07:33:27.775Z,50.62
2019-05-17T07:34:30.746Z,50.62
2019-05-17T07:35:29.883Z,50.62
2019-05-17T07:36:27.743Z,50.62
2019-05-17T07:37:30.121Z,50.62
2019-05-17T07:38:30.035Z,50.62
2019-05-17T07:39:29.513Z,50.62
2019-05-17T07:40:27.702Z,50.62
2019-05-17T07:41:29.749Z,50.62
2019-05-17T07:42:29.743Z,50.62
2019-05-17T07:43:29.631Z,50.62
2019-05-17T07:44:29.443Z,50.62
2019-05-17T07:45:29.579Z,50.62
2019-05-17T07:46:29.458Z,50.62
2019-05-17T07:47:29.447Z,50.62
2019-05-17T07:48:27.648Z,50.62
2019-05-17T07:49:29.425Z,50.62
2019-05-17T07:50:29.326Z,50.62
2019-05-17T07:51:29.966Z,50.62
2019-05-17T07:52:29.806Z,50.62
2019-05-17T07:53:27.552Z,50.62
2019-05-17T07:54:27.570Z,50.62
2019-05-17T07:55:27.531Z,50.62
2019-05-17T07:56:27.522Z,50.62
2019-05-17T07:57:29.795Z,50.62
2019-05-17T07:58:29.710Z,50.62
2019-05-17T07:59:29.424Z,50.62
2019-05-17T08:00:27.479Z,50.62
2019-05-17T08:01:29.531Z,50.62
2019-05-17T08:02:27.459Z,50.62
2019-05-17T08:03:29.717Z,50.62
2019-05-17T08:04:29.792Z,50.62
2019-05-17T08:05:29.625Z,50.62
2019-05-17T08:06:27.435Z,50.62
2019-05-17T08:07:27.403Z,50.62
2019-05-17T08:08:30.509Z,50.62
2019-05-17T08:09:29.896Z,50.62
2019-05-17T08:10:29.680Z,50.62
2019-05-17T08:11:27.358Z,50.62
2019-05-17T08:12:27.347Z,50.62
2019-05-17T08:13:31.247Z,50.62
2019-05-17T08:14:31.104Z,50.62
2019-05-17T08:15:30.383Z,50.62
2019-05-17T08:16:27.303Z,50.62
2019-05-17T08:17:27.293Z,50.62
2019-05-17T08:18:29.455Z,50.62
2019-05-17T08:19:29.758Z,50.62
2019-05-17T08:20:27.259Z,50.62
2019-05-17T08:21:27.285Z,50.62
2019-05-17T08:22:29.260Z,50.62
2019-05-17T08:23:27.232Z,50.62
2019-05-17T08:24:27.217Z,50.62
2019-05-17T08:25:27.203Z,50.62
2019-05-17T08:26:29.134Z,50.62
2019-05-17T08:27:29.414Z,50.62
2019-05-17T08:28:27.323Z,50.62
2019-05-17T08:29:29.609Z,50.62
2019-05-17T08:30:30.041Z,50.62
2019-05-17T08:31:29.427Z,50.62
2019-05-17T08:32:27.124Z,50.62
2019-05-17T08:33:27.156Z,50.62
2019-05-17T08:34:29.199Z,50.62
2019-05-17T08:35:27.095Z,50.62
2019-05-17T08:36:29.645Z,50.62
2019-05-17T08:37:29.918Z,50.62
2019-05-17T08:38:27.061Z,50.62
2019-05-17T08:39:27.086Z,50.62
2019-05-17T08:40:27.039Z,50.62
2019-05-17T08:41:30.684Z,50.62
2019-05-17T08:42:27.017Z,56.25
2019-05-17T08:43:38.317Z,50.62
2019-05-17T08:44:29.876Z,50.62
2019-05-17T08:45:26.981Z,56.25
2019-05-17T08:46:26.970Z,56.25
2019-05-17T08:47:26.959Z,56.25
2019-05-17T08:48:26.949Z,50.62
2019-05-17T08:49:29.451Z,56.25
2019-05-17T08:50:29.283Z,56.25
2019-05-17T08:51:26.916Z,56.25
2019-05-17T08:52:29.296Z,56.25
2019-05-17T08:53:26.897Z,56.25
2019-05-17T08:54:26.885Z,50.62
2019-05-17T08:55:26.873Z,56.25
2019-05-17T08:56:26.899Z,56.25
2019-05-17T08:57:26.851Z,56.25
2019-05-17T08:58:26.840Z,56.25
2019-05-17T08:59:29.507Z,56.25
2019-05-17T09:00:26.819Z,56.25
2019-05-17T09:01:26.808Z,56.25
2019-05-17T09:02:26.834Z,56.25
2019-05-17T09:03:26.785Z,56.25
2019-05-17T09:04:26.776Z,56.25
2019-05-17T09:05:26.767Z,56.25
2019-05-17T09:06:29.173Z,56.25
2019-05-17T09:07:26.742Z,61.88
2019-05-17T09:08:26.768Z,56.25
2019-05-17T09:09:26.720Z,56.25
2019-05-17T09:10:26.753Z,56.25
2019-05-17T09:11:26.699Z,45.00
2019-05-17T09:12:26.692Z,56.25
2019-05-17T09:13:26.676Z,61.88
2019-05-17T09:14:26.705Z,61.88
2019-05-17T09:15:26.652Z,67.50
2019-05-17T09:16:26.643Z,67.50
2019-05-17T09:17:26.631Z,67.50
2019-05-17T09:18:26.619Z,67.50
2019-05-17T09:19:26.611Z,67.50
2019-05-17T09:20:26.673Z,67.50
2019-05-17T09:21:26.589Z,73.12
2019-05-17T09:22:26.575Z,56.25
2019-05-17T09:23:26.566Z,56.25
2019-05-17T09:24:26.559Z,56.25
2019-05-17T09:25:26.542Z,61.88
2019-05-17T09:26:26.598Z,67.50
2019-05-17T09:27:26.570Z,73.12
2019-05-17T09:28:26.529Z,90.00
2019-05-17T09:29:26.501Z,95.62
2019-05-17T09:30:26.491Z,84.38
2019-05-17T09:31:26.506Z,95.62
2019-05-17T09:32:26.534Z,95.62
2019-05-17T09:33:26.457Z,90.00
2019-05-17T09:34:26.483Z,90.00
2019-05-17T09:35:26.484Z,67.50
2019-05-17T09:36:26.455Z,67.50
2019-05-17T09:37:26.413Z,67.50
2019-05-17T09:38:26.438Z,73.12
2019-05-17T09:39:26.402Z,73.12
2019-05-17T09:40:26.383Z,73.12
2019-05-17T09:41:26.370Z,95.62
2019-05-17T09:42:26.427Z,78.75
2019-05-17T09:43:26.348Z,84.38
2019-05-17T09:44:26.500Z,95.62
2019-05-17T09:45:26.326Z,95.62
2019-05-17T09:46:26.339Z,84.38
2019-05-17T09:47:26.306Z,78.75
2019-05-17T09:48:26.295Z,95.62
2019-05-17T09:49:26.282Z,95.62
2019-05-17T09:50:26.297Z,95.62
2019-05-17T09:51:26.263Z,101.25
2019-05-17T09:52:26.249Z,95.62
2019-05-17T09:53:26.240Z,95.62
2019-05-17T09:54:39.016Z,90.00
2019-05-17T09:55:27.253Z,84.38
2019-05-17T09:56:26.206Z,67.50
2019-05-17T09:57:26.294Z,67.50
2019-05-17T09:58:26.185Z,67.50
2019-05-17T09:59:26.172Z,67.50
2019-05-17T10:00:26.161Z,67.50
2019-05-17T10:01:26.185Z,73.12
2019-05-17T10:02:26.140Z,73.12
2019-05-17T10:03:26.129Z,73.12
2019-05-17T10:04:26.118Z,78.75
2019-05-17T10:05:26.112Z,78.75
2019-05-17T10:06:26.134Z,78.75
2019-05-17T10:07:26.086Z,78.75
2019-05-17T10:08:26.086Z,78.75
2019-05-17T10:09:26.063Z,78.75
2019-05-17T10:10:26.053Z,84.38
2019-05-17T10:11:26.050Z,84.38
2019-05-17T10:12:26.058Z,84.38
2019-05-17T10:13:26.020Z,84.38
2019-05-17T10:14:30.762Z,78.75
2019-05-17T10:15:27.007Z,73.12
2019-05-17T10:16:25.991Z,73.12
2019-05-17T10:17:26.015Z,78.75
2019-05-17T10:18:25.966Z,90.00
2019-05-17T10:19:25.957Z,106.88
2019-05-17T10:20:25.947Z,112.50
2019-05-17T10:21:25.980Z,95.62
2019-05-17T10:22:25.923Z,106.88
2019-05-17T10:23:25.940Z,95.62
2019-05-17T10:24:36.054Z,95.62
2019-05-17T10:25:26.890Z,106.88
2019-05-17T10:26:25.903Z,95.62
2019-05-17T10:27:25.873Z,90.00
2019-05-17T10:28:25.895Z,95.62
2019-05-17T10:29:25.849Z,90.00
2019-05-17T10:30:25.838Z,84.38
2019-05-17T10:31:25.830Z,84.38
2019-05-17T10:32:25.816Z,78.75
2019-05-17T10:33:25.805Z,73.12
2019-05-17T10:34:25.821Z,73.12
2019-05-17T10:35:25.784Z,67.50
2019-05-17T10:36:25.776Z,61.88
2019-05-17T10:37:25.762Z,61.88
2019-05-17T10:38:25.752Z,78.75
2019-05-17T10:39:25.780Z,67.50
2019-05-17T10:40:25.731Z,73.12
2019-05-17T10:41:25.719Z,78.75
2019-05-17T10:42:25.708Z,84.38
2019-05-17T10:43:25.697Z,90.00
2019-05-17T10:44:39.958Z,95.62
2019-05-17T10:45:26.700Z,95.62
2019-05-17T10:46:25.666Z,101.25
2019-05-17T10:47:25.654Z,106.88
2019-05-17T10:48:25.641Z,106.88
2019-05-17T10:49:25.641Z,112.50
2019-05-17T10:50:25.657Z,118.12
2019-05-17T10:51:25.611Z,118.12
2019-05-17T10:52:25.599Z,118.12
2019-05-17T10:53:25.586Z,118.12
2019-05-17T10:54:25.576Z,112.50
2019-05-17T10:55:25.565Z,106.88
2019-05-17T10:56:25.580Z,106.88
2019-05-17T10:57:25.546Z,106.88
2019-05-17T10:58:25.531Z,106.88
2019-05-17T10:59:25.525Z,101.25
2019-05-17T11:00:25.511Z,106.88
2019-05-17T11:01:25.537Z,106.88
2019-05-17T11:02:25.487Z,106.88
2019-05-17T11:03:25.478Z,106.88
2019-05-17T11:04:25.463Z,112.50
2019-05-17T11:05:25.453Z,106.88
2019-05-17T11:06:25.443Z,106.88
2019-05-17T11:07:25.458Z,101.25
2019-05-17T11:08:25.421Z,95.62
2019-05-17T11:09:25.415Z,90.00
2019-05-17T11:10:25.398Z,90.00
2019-05-17T11:11:25.390Z,90.00
2019-05-17T11:12:25.414Z,90.00
2019-05-17T11:13:25.372Z,90.00
2019-05-17T11:14:25.359Z,84.38
2019-05-17T11:15:25.348Z,78.75
2019-05-17T11:16:25.338Z,73.12
2019-05-17T11:17:25.328Z,67.50
2019-05-17T11:18:25.339Z,67.50
2019-05-17T11:19:25.303Z,67.50
2019-05-17T11:20:25.298Z,73.12
2019-05-17T11:21:25.287Z,73.12
2019-05-17T11:22:25.271Z,73.12
2019-05-17T11:23:25.299Z,78.75
2019-05-17T11:24:25.250Z,73.12
2019-05-17T11:25:25.241Z,73.12
2019-05-17T11:26:25.227Z,67.50
2019-05-17T11:27:25.217Z,67.50
2019-05-17T11:28:25.205Z,67.50
2019-05-17T11:29:25.218Z,67.50
2019-05-17T11:30:25.187Z,67.50
2019-05-17T11:31:25.172Z,67.50
2019-05-17T11:32:25.161Z,67.50
2019-05-17T11:33:25.186Z,73.12
2019-05-17T11:34:25.744Z,73.12
2019-05-17T11:35:25.168Z,73.12
2019-05-17T11:36:25.149Z,73.12
2019-05-17T11:37:25.134Z,73.12
2019-05-17T11:38:25.117Z,73.12
2019-05-17T11:39:25.108Z,67.50
2019-05-17T11:40:25.152Z,67.50
2019-05-17T11:41:25.061Z,67.50
2019-05-17T11:42:25.054Z,67.50
2019-05-17T11:43:25.037Z,67.50
2019-05-17T11:44:25.029Z,67.50
2019-05-17T11:45:29.094Z,67.50
2019-05-17T11:46:35.761Z,67.50
2019-05-17T11:47:26.020Z,67.50
2019-05-17T11:48:25.008Z,61.88
2019-05-17T11:49:25.015Z,61.88
2019-05-17T11:50:24.989Z,67.50
2019-05-17T11:51:27.390Z,61.88
2019-05-17T11:52:24.973Z,61.88
2019-05-17T11:53:24.954Z,61.88
2019-05-17T11:54:24.957Z,61.88
2019-05-17T11:55:24.930Z,56.25
2019-05-17T11:56:24.892Z,56.25
2019-05-17T11:57:24.882Z,56.25
2019-05-17T11:58:24.885Z,56.25
2019-05-17T11:59:24.878Z,56.25
2019-05-17T12:00:24.876Z,50.62
2019-05-17T12:01:24.839Z,50.62
2019-05-17T12:02:24.846Z,50.62
2019-05-17T12:03:24.813Z,50.62
2019-05-17T12:04:24.804Z,56.25
2019-05-17T12:05:24.825Z,56.25
2019-05-17T12:06:24.782Z,61.88
2019-05-17T12:07:24.784Z,67.50
2019-05-17T12:08:24.774Z,73.12
2019-05-17T12:09:36.521Z,78.75
2019-05-17T12:10:25.857Z,84.38
2019-05-17T12:11:24.725Z,90.00
2019-05-17T12:12:24.816Z,101.25
2019-05-17T12:13:24.708Z,118.12
2019-05-17T12:14:24.776Z,135.00
2019-05-17T12:15:24.681Z,140.62
2019-05-17T12:16:24.668Z,146.25
2019-05-17T12:17:24.658Z,146.25
2019-05-17T12:18:24.646Z,157.50
2019-05-17T12:19:24.635Z,151.88
2019-05-17T12:20:24.660Z,163.12
2019-05-17T12:21:24.612Z,174.38
2019-05-17T12:22:24.603Z,163.12
2019-05-17T12:23:24.591Z,185.62
2019-05-17T12:24:24.580Z,151.88
2019-05-17T12:25:24.605Z,185.62
2019-05-17T12:26:24.562Z,191.25
2019-05-17T12:27:24.550Z,180.00
2019-05-17T12:28:24.540Z,191.25
2019-05-17T12:29:24.528Z,230.62
2019-05-17T12:30:24.532Z,196.88
2019-05-17T12:31:24.529Z,196.88
2019-05-17T12:32:24.495Z,163.12
2019-05-17T12:33:24.492Z,168.75
2019-05-17T12:34:24.515Z,556.88
2019-05-17T12:35:24.462Z,208.12
2019-05-17T12:36:24.488Z,506.25
2019-05-17T12:37:24.439Z,225.00
2019-05-17T12:38:24.429Z,292.50
2019-05-17T12:39:24.422Z,191.25
2019-05-17T12:40:24.408Z,247.50
2019-05-17T12:41:24.400Z,163.12
2019-05-17T12:42:24.408Z,185.62
2019-05-17T12:43:24.374Z,202.50
2019-05-17T12:44:24.409Z,151.88
2019-05-17T12:45:24.353Z,146.25
2019-05-17T12:46:24.341Z,151.88
2019-05-17T12:47:24.368Z,140.62
2019-05-17T12:48:24.322Z,129.38
2019-05-17T12:49:24.316Z,123.75
2019-05-17T12:50:24.301Z,112.50
2019-05-17T12:51:24.520Z,106.88
2019-05-17T12:52:24.275Z,101.25
2019-05-17T12:53:24.288Z,95.62
2019-05-17T12:54:24.257Z,95.62
2019-05-17T12:55:24.242Z,90.00
2019-05-17T12:56:24.230Z,90.00
2019-05-17T12:57:24.219Z,84.38
2019-05-17T12:58:24.245Z,84.38